sensor_id;sensor_type;location;lat;lon;timestamp;temperature;humidity
702;DHT22;334;48.808;9.222;2022-09-09T00:01:07;19.60;1.00
702;DHT22;334;48.808;9.222;2022-09-09T00:02:20;19.70;1.00
702;DHT22;334;48.808;9.222;2022-09-09T00:03:26;19.60;1.00
702;DHT22;334;48.808;9.222;2022-09-09T00:04:32;19.70;1.00
702;DHT22;334;48.808;9.222;2022-09-09T00:06:04;19.60;1.00
702;DHT22;334;48.808;9.222;2022-09-09T00:07:20;19.70;1.00
702;DHT22;334;48.808;9.222;2022-09-09T00:08:44;19.60;1.00
702;DHT22;334;48.808;9.222;2022-09-09T00:09:49;19.60;1.00
702;DHT22;334;48.808;9.222;2022-09-09T00:11:00;19.60;1.00
702;DHT22;334;48.808;9.222;2022-09-09T00:12:32;19.60;1.00
702;DHT22;334;48.808;9.222;2022-09-09T00:13:48;19.60;1.00
702;DHT22;334;48.808;9.222;2022-09-09T00:14:57;19.60;1.00
702;DHT22;334;48.808;9.222;2022-09-09T00:16:20;19.60;1.00
702;DHT22;334;48.808;9.222;2022-09-09T00:17:38;19.60;1.00
702;DHT22;334;48.808;9.222;2022-09-09T00:21:36;19.60;1.00
702;DHT22;334;48.808;9.222;2022-09-09T00:22:47;19.60;1.00
702;DHT22;334;48.808;9.222;2022-09-09T00:23:54;19.70;1.00
702;DHT22;334;48.808;9.222;2022-09-09T00:25:08;19.60;1.00
702;DHT22;334;48.808;9.222;2022-09-09T00:27:47;19.50;1.00
702;DHT22;334;48.808;9.222;2022-09-09T00:28:59;19.50;1.00
702;DHT22;334;48.808;9.222;2022-09-09T00:31:28;19.50;1.00
702;DHT22;334;48.808;9.222;2022-09-09T00:32:30;19.50;1.00
702;DHT22;334;48.808;9.222;2022-09-09T00:33:38;19.60;1.00
702;DHT22;334;48.808;9.222;2022-09-09T00:34:51;19.50;1.00
702;DHT22;334;48.808;9.222;2022-09-09T00:35:57;19.50;1.00
702;DHT22;334;48.808;9.222;2022-09-09T00:36:59;19.50;1.00
702;DHT22;334;48.808;9.222;2022-09-09T00:38:25;19.60;1.00
702;DHT22;334;48.808;9.222;2022-09-09T00:39:42;19.50;1.00
702;DHT22;334;48.808;9.222;2022-09-09T00:42:17;19.50;1.00
702;DHT22;334;48.808;9.222;2022-09-09T00:43:30;19.50;1.00
702;DHT22;334;48.808;9.222;2022-09-09T00:44:36;19.60;1.00
702;DHT22;334;48.808;9.222;2022-09-09T00:47:18;19.60;1.00
702;DHT22;334;48.808;9.222;2022-09-09T00:50:15;19.60;1.00
702;DHT22;334;48.808;9.222;2022-09-09T00:51:25;19.60;1.00
702;DHT22;334;48.808;9.222;2022-09-09T00:55:25;19.60;1.00
702;DHT22;334;48.808;9.222;2022-09-09T00:58:24;19.60;1.00
702;DHT22;334;48.808;9.222;2022-09-09T00:59:32;19.70;1.00
702;DHT22;334;48.808;9.222;2022-09-09T01:00:50;19.70;1.00
702;DHT22;334;48.808;9.222;2022-09-09T01:01:54;19.70;1.00
702;DHT22;334;48.808;9.222;2022-09-09T01:03:36;19.70;1.00
702;DHT22;334;48.808;9.222;2022-09-09T01:04:39;19.70;1.00
702;DHT22;334;48.808;9.222;2022-09-09T01:05:49;19.80;1.00
702;DHT22;334;48.808;9.222;2022-09-09T01:07:02;19.70;1.00
702;DHT22;334;48.808;9.222;2022-09-09T01:09:52;19.70;1.00
702;DHT22;334;48.808;9.222;2022-09-09T01:10:57;19.70;1.00
702;DHT22;334;48.808;9.222;2022-09-09T01:15:32;19.70;1.00
702;DHT22;334;48.808;9.222;2022-09-09T01:16:34;19.70;1.00
702;DHT22;334;48.808;9.222;2022-09-09T01:17:54;19.70;1.00
702;DHT22;334;48.808;9.222;2022-09-09T01:19:00;19.70;1.00
702;DHT22;334;48.808;9.222;2022-09-09T01:20:27;19.70;1.00
702;DHT22;334;48.808;9.222;2022-09-09T01:21:54;19.60;1.00
702;DHT22;334;48.808;9.222;2022-09-09T01:24:46;19.60;1.00
702;DHT22;334;48.808;9.222;2022-09-09T01:27:48;19.70;1.00
702;DHT22;334;48.808;9.222;2022-09-09T01:28:51;19.60;1.00
702;DHT22;334;48.808;9.222;2022-09-09T01:29:57;19.60;1.00
702;DHT22;334;48.808;9.222;2022-09-09T01:31:03;19.50;1.00
702;DHT22;334;48.808;9.222;2022-09-09T01:32:44;19.50;1.00
702;DHT22;334;48.808;9.222;2022-09-09T01:33:46;19.50;1.00
702;DHT22;334;48.808;9.222;2022-09-09T01:34:48;19.40;1.00
702;DHT22;334;48.808;9.222;2022-09-09T01:36:02;19.50;1.00
702;DHT22;334;48.808;9.222;2022-09-09T01:37:10;19.40;1.00
702;DHT22;334;48.808;9.222;2022-09-09T01:38:14;19.40;1.00
702;DHT22;334;48.808;9.222;2022-09-09T01:39:16;19.40;1.00
702;DHT22;334;48.808;9.222;2022-09-09T01:40:18;19.40;1.00
702;DHT22;334;48.808;9.222;2022-09-09T01:41:21;19.50;1.00
702;DHT22;334;48.808;9.222;2022-09-09T01:42:23;19.50;1.00
702;DHT22;334;48.808;9.222;2022-09-09T01:43:25;19.40;1.00
702;DHT22;334;48.808;9.222;2022-09-09T01:44:29;19.50;1.00
702;DHT22;334;48.808;9.222;2022-09-09T01:45:31;19.50;1.00
702;DHT22;334;48.808;9.222;2022-09-09T01:46:33;19.60;1.00
702;DHT22;334;48.808;9.222;2022-09-09T01:47:35;19.60;1.00
702;DHT22;334;48.808;9.222;2022-09-09T01:48:37;19.60;1.00
702;DHT22;334;48.808;9.222;2022-09-09T01:49:39;19.60;1.00
702;DHT22;334;48.808;9.222;2022-09-09T01:50:41;19.60;1.00
702;DHT22;334;48.808;9.222;2022-09-09T01:51:43;19.60;1.00
702;DHT22;334;48.808;9.222;2022-09-09T01:52:54;19.70;1.00
702;DHT22;334;48.808;9.222;2022-09-09T01:53:58;19.70;1.00
702;DHT22;334;48.808;9.222;2022-09-09T01:55:00;19.70;1.00
702;DHT22;334;48.808;9.222;2022-09-09T01:56:16;19.70;1.00
702;DHT22;334;48.808;9.222;2022-09-09T01:57:32;19.80;1.00
702;DHT22;334;48.808;9.222;2022-09-09T02:00:08;19.70;1.00
702;DHT22;334;48.808;9.222;2022-09-09T02:01:32;19.70;1.00
702;DHT22;334;48.808;9.222;2022-09-09T02:02:44;19.70;1.00
702;DHT22;334;48.808;9.222;2022-09-09T02:03:52;19.70;1.00
702;DHT22;334;48.808;9.222;2022-09-09T02:05:05;19.70;1.00
702;DHT22;334;48.808;9.222;2022-09-09T02:06:27;19.70;1.00
702;DHT22;334;48.808;9.222;2022-09-09T02:07:41;19.80;1.00
702;DHT22;334;48.808;9.222;2022-09-09T02:08:48;19.80;1.00
702;DHT22;334;48.808;9.222;2022-09-09T02:10:04;19.80;1.00
702;DHT22;334;48.808;9.222;2022-09-09T02:11:20;19.80;1.00
702;DHT22;334;48.808;9.222;2022-09-09T02:12:24;19.80;1.00
702;DHT22;334;48.808;9.222;2022-09-09T02:13:29;19.80;1.00
702;DHT22;334;48.808;9.222;2022-09-09T02:14:35;19.80;1.00
702;DHT22;334;48.808;9.222;2022-09-09T02:15:42;19.80;1.00
702;DHT22;334;48.808;9.222;2022-09-09T02:16:50;19.80;1.00
702;DHT22;334;48.808;9.222;2022-09-09T02:17:57;19.80;1.00
702;DHT22;334;48.808;9.222;2022-09-09T02:20:13;19.80;1.00
702;DHT22;334;48.808;9.222;2022-09-09T02:21:16;19.70;1.00
702;DHT22;334;48.808;9.222;2022-09-09T02:22:21;19.70;1.00
702;DHT22;334;48.808;9.222;2022-09-09T02:23:24;19.70;1.00
702;DHT22;334;48.808;9.222;2022-09-09T02:24:30;19.70;1.00
702;DHT22;334;48.808;9.222;2022-09-09T02:25:34;19.70;1.00
702;DHT22;334;48.808;9.222;2022-09-09T02:26:39;19.70;1.00
702;DHT22;334;48.808;9.222;2022-09-09T02:27:43;19.70;1.00
702;DHT22;334;48.808;9.222;2022-09-09T02:28:48;19.70;1.00
702;DHT22;334;48.808;9.222;2022-09-09T02:29:51;19.70;1.00
702;DHT22;334;48.808;9.222;2022-09-09T02:30:54;19.70;1.00
702;DHT22;334;48.808;9.222;2022-09-09T02:32:01;19.70;1.00
702;DHT22;334;48.808;9.222;2022-09-09T02:33:06;19.70;1.00
702;DHT22;334;48.808;9.222;2022-09-09T02:34:10;19.70;1.00
702;DHT22;334;48.808;9.222;2022-09-09T02:35:15;19.70;1.00
702;DHT22;334;48.808;9.222;2022-09-09T02:36:19;19.70;1.00
702;DHT22;334;48.808;9.222;2022-09-09T02:37:26;19.70;1.00
702;DHT22;334;48.808;9.222;2022-09-09T02:38:35;19.70;1.00
702;DHT22;334;48.808;9.222;2022-09-09T02:39:38;19.60;1.00
702;DHT22;334;48.808;9.222;2022-09-09T02:40:40;19.60;1.00
702;DHT22;334;48.808;9.222;2022-09-09T02:41:42;19.60;1.00
702;DHT22;334;48.808;9.222;2022-09-09T02:42:46;19.50;1.00
702;DHT22;334;48.808;9.222;2022-09-09T02:43:48;19.50;1.00
702;DHT22;334;48.808;9.222;2022-09-09T02:44:50;19.50;1.00
702;DHT22;334;48.808;9.222;2022-09-09T02:49:40;19.60;1.00
702;DHT22;334;48.808;9.222;2022-09-09T02:51:05;19.60;1.00
702;DHT22;334;48.808;9.222;2022-09-09T02:52:14;19.60;1.00
702;DHT22;334;48.808;9.222;2022-09-09T02:53:35;19.60;1.00
702;DHT22;334;48.808;9.222;2022-09-09T02:54:40;19.60;1.00
702;DHT22;334;48.808;9.222;2022-09-09T02:55:48;19.60;1.00
702;DHT22;334;48.808;9.222;2022-09-09T02:56:53;19.60;1.00
702;DHT22;334;48.808;9.222;2022-09-09T02:57:56;19.60;1.00
702;DHT22;334;48.808;9.222;2022-09-09T02:59:03;19.60;1.00
702;DHT22;334;48.808;9.222;2022-09-09T03:00:06;19.60;1.00
702;DHT22;334;48.808;9.222;2022-09-09T03:01:08;19.40;1.00
702;DHT22;334;48.808;9.222;2022-09-09T03:02:11;19.60;1.00
702;DHT22;334;48.808;9.222;2022-09-09T03:03:13;19.60;1.00
702;DHT22;334;48.808;9.222;2022-09-09T03:04:15;19.60;1.00
702;DHT22;334;48.808;9.222;2022-09-09T03:05:17;19.60;1.00
702;DHT22;334;48.808;9.222;2022-09-09T03:06:19;19.60;1.00
702;DHT22;334;48.808;9.222;2022-09-09T03:07:21;19.60;1.00
702;DHT22;334;48.808;9.222;2022-09-09T03:08:23;19.60;1.00
702;DHT22;334;48.808;9.222;2022-09-09T03:09:25;19.60;1.00
702;DHT22;334;48.808;9.222;2022-09-09T03:10:29;19.60;1.00
702;DHT22;334;48.808;9.222;2022-09-09T03:11:32;19.60;1.00
702;DHT22;334;48.808;9.222;2022-09-09T03:12:33;19.60;1.00
702;DHT22;334;48.808;9.222;2022-09-09T03:13:35;19.60;1.00
702;DHT22;334;48.808;9.222;2022-09-09T03:14:40;19.60;1.00
702;DHT22;334;48.808;9.222;2022-09-09T03:15:42;19.60;1.00
702;DHT22;334;48.808;9.222;2022-09-09T03:16:44;19.60;1.00
702;DHT22;334;48.808;9.222;2022-09-09T03:17:46;19.60;1.00
702;DHT22;334;48.808;9.222;2022-09-09T03:18:48;19.60;1.00
702;DHT22;334;48.808;9.222;2022-09-09T03:19:50;19.60;1.00
702;DHT22;334;48.808;9.222;2022-09-09T03:20:54;19.60;1.00
702;DHT22;334;48.808;9.222;2022-09-09T03:21:56;19.50;1.00
702;DHT22;334;48.808;9.222;2022-09-09T03:22:59;19.50;1.00
702;DHT22;334;48.808;9.222;2022-09-09T03:24:01;19.50;1.00
702;DHT22;334;48.808;9.222;2022-09-09T03:25:05;19.50;1.00
702;DHT22;334;48.808;9.222;2022-09-09T03:26:08;19.40;1.00
702;DHT22;334;48.808;9.222;2022-09-09T03:27:09;19.40;1.00
702;DHT22;334;48.808;9.222;2022-09-09T03:28:11;19.40;1.00
702;DHT22;334;48.808;9.222;2022-09-09T03:29:13;19.50;1.00
702;DHT22;334;48.808;9.222;2022-09-09T03:30:16;19.30;1.00
702;DHT22;334;48.808;9.222;2022-09-09T03:31:18;19.30;1.00
702;DHT22;334;48.808;9.222;2022-09-09T03:32:21;19.30;1.00
702;DHT22;334;48.808;9.222;2022-09-09T03:33:23;19.30;1.00
702;DHT22;334;48.808;9.222;2022-09-09T03:34:27;19.20;1.00
702;DHT22;334;48.808;9.222;2022-09-09T03:35:29;19.30;1.00
702;DHT22;334;48.808;9.222;2022-09-09T03:36:32;19.20;1.00
702;DHT22;334;48.808;9.222;2022-09-09T03:37:35;19.20;1.00
702;DHT22;334;48.808;9.222;2022-09-09T03:38:37;19.20;1.00
702;DHT22;334;48.808;9.222;2022-09-09T03:39:39;19.20;1.00
702;DHT22;334;48.808;9.222;2022-09-09T03:40:51;19.20;1.00
702;DHT22;334;48.808;9.222;2022-09-09T03:41:54;19.20;1.00
702;DHT22;334;48.808;9.222;2022-09-09T03:42:58;19.10;1.00
702;DHT22;334;48.808;9.222;2022-09-09T03:43:59;19.10;1.00
702;DHT22;334;48.808;9.222;2022-09-09T03:45:01;19.20;1.00
702;DHT22;334;48.808;9.222;2022-09-09T03:46:03;19.10;1.00
702;DHT22;334;48.808;9.222;2022-09-09T03:47:05;19.00;1.00
702;DHT22;334;48.808;9.222;2022-09-09T03:48:07;19.00;1.00
702;DHT22;334;48.808;9.222;2022-09-09T03:49:13;19.00;1.00
702;DHT22;334;48.808;9.222;2022-09-09T03:50:15;19.00;1.00
702;DHT22;334;48.808;9.222;2022-09-09T03:51:16;19.00;1.00
702;DHT22;334;48.808;9.222;2022-09-09T03:52:19;18.90;1.00
702;DHT22;334;48.808;9.222;2022-09-09T03:53:24;18.90;1.00
702;DHT22;334;48.808;9.222;2022-09-09T03:54:26;18.90;1.00
702;DHT22;334;48.808;9.222;2022-09-09T03:55:28;18.90;1.00
702;DHT22;334;48.808;9.222;2022-09-09T03:56:30;18.90;1.00
702;DHT22;334;48.808;9.222;2022-09-09T03:57:33;18.90;1.00
702;DHT22;334;48.808;9.222;2022-09-09T03:58:37;18.90;1.00
702;DHT22;334;48.808;9.222;2022-09-09T03:59:39;18.90;1.00
702;DHT22;334;48.808;9.222;2022-09-09T04:00:41;18.90;1.00
702;DHT22;334;48.808;9.222;2022-09-09T04:01:46;18.90;1.00
702;DHT22;334;48.808;9.222;2022-09-09T04:02:48;18.90;1.00
702;DHT22;334;48.808;9.222;2022-09-09T04:03:53;18.90;1.00
702;DHT22;334;48.808;9.222;2022-09-09T04:04:56;18.90;1.00
702;DHT22;334;48.808;9.222;2022-09-09T04:06:00;18.90;1.00
702;DHT22;334;48.808;9.222;2022-09-09T04:07:03;18.90;1.00
702;DHT22;334;48.808;9.222;2022-09-09T04:08:08;18.90;1.00
702;DHT22;334;48.808;9.222;2022-09-09T04:09:10;18.80;1.00
702;DHT22;334;48.808;9.222;2022-09-09T04:10:13;18.90;1.00
702;DHT22;334;48.808;9.222;2022-09-09T04:11:15;18.80;1.00
702;DHT22;334;48.808;9.222;2022-09-09T04:12:17;18.80;1.00
702;DHT22;334;48.808;9.222;2022-09-09T04:13:19;18.90;1.00
702;DHT22;334;48.808;9.222;2022-09-09T04:14:21;18.90;1.00
702;DHT22;334;48.808;9.222;2022-09-09T04:15:23;18.90;1.00
702;DHT22;334;48.808;9.222;2022-09-09T04:16:25;18.90;1.00
702;DHT22;334;48.808;9.222;2022-09-09T04:17:28;19.00;1.00
702;DHT22;334;48.808;9.222;2022-09-09T04:18:30;18.90;1.00
702;DHT22;334;48.808;9.222;2022-09-09T04:19:32;19.00;1.00
702;DHT22;334;48.808;9.222;2022-09-09T04:20:34;19.00;1.00
702;DHT22;334;48.808;9.222;2022-09-09T04:21:36;19.00;1.00
702;DHT22;334;48.808;9.222;2022-09-09T04:22:38;19.00;1.00
702;DHT22;334;48.808;9.222;2022-09-09T04:23:40;18.90;1.00
702;DHT22;334;48.808;9.222;2022-09-09T04:24:42;19.00;1.00
702;DHT22;334;48.808;9.222;2022-09-09T04:25:51;18.90;1.00
702;DHT22;334;48.808;9.222;2022-09-09T04:26:53;18.90;1.00
702;DHT22;334;48.808;9.222;2022-09-09T04:27:56;18.90;1.00
702;DHT22;334;48.808;9.222;2022-09-09T04:28:58;18.80;1.00
702;DHT22;334;48.808;9.222;2022-09-09T04:30:00;18.80;1.00
702;DHT22;334;48.808;9.222;2022-09-09T04:31:07;18.80;1.00
702;DHT22;334;48.808;9.222;2022-09-09T04:32:09;18.80;1.00
702;DHT22;334;48.808;9.222;2022-09-09T04:33:12;18.80;1.00
702;DHT22;334;48.808;9.222;2022-09-09T04:34:15;18.80;1.00
702;DHT22;334;48.808;9.222;2022-09-09T04:35:16;18.80;1.00
702;DHT22;334;48.808;9.222;2022-09-09T04:36:19;18.80;1.00
702;DHT22;334;48.808;9.222;2022-09-09T04:37:21;18.80;1.00
702;DHT22;334;48.808;9.222;2022-09-09T04:38:24;18.80;1.00
702;DHT22;334;48.808;9.222;2022-09-09T04:39:27;18.80;1.00
702;DHT22;334;48.808;9.222;2022-09-09T04:40:29;18.60;1.00
702;DHT22;334;48.808;9.222;2022-09-09T04:41:31;18.80;1.00
702;DHT22;334;48.808;9.222;2022-09-09T04:42:36;18.70;1.00
702;DHT22;334;48.808;9.222;2022-09-09T04:43:38;18.80;1.00
702;DHT22;334;48.808;9.222;2022-09-09T04:44:40;18.70;1.00
702;DHT22;334;48.808;9.222;2022-09-09T04:45:43;18.70;1.00
702;DHT22;334;48.808;9.222;2022-09-09T04:46:45;18.70;1.00
702;DHT22;334;48.808;9.222;2022-09-09T04:47:47;18.60;1.00
702;DHT22;334;48.808;9.222;2022-09-09T04:48:49;18.70;1.00
702;DHT22;334;48.808;9.222;2022-09-09T04:49:55;18.70;1.00
702;DHT22;334;48.808;9.222;2022-09-09T04:51:03;18.60;1.00
702;DHT22;334;48.808;9.222;2022-09-09T04:52:06;18.60;1.00
702;DHT22;334;48.808;9.222;2022-09-09T04:53:08;18.60;1.00
702;DHT22;334;48.808;9.222;2022-09-09T04:54:10;18.60;1.00
702;DHT22;334;48.808;9.222;2022-09-09T04:55:13;18.60;1.00
702;DHT22;334;48.808;9.222;2022-09-09T04:56:16;18.60;1.00
702;DHT22;334;48.808;9.222;2022-09-09T04:57:18;18.60;1.00
702;DHT22;334;48.808;9.222;2022-09-09T04:58:20;18.60;1.00
702;DHT22;334;48.808;9.222;2022-09-09T04:59:23;18.60;1.00
702;DHT22;334;48.808;9.222;2022-09-09T05:00:25;18.60;1.00
702;DHT22;334;48.808;9.222;2022-09-09T05:01:27;18.60;1.00
702;DHT22;334;48.808;9.222;2022-09-09T05:02:29;18.60;1.00
702;DHT22;334;48.808;9.222;2022-09-09T05:03:32;18.60;1.00
702;DHT22;334;48.808;9.222;2022-09-09T05:04:34;18.60;1.00
702;DHT22;334;48.808;9.222;2022-09-09T05:05:36;18.60;1.00
702;DHT22;334;48.808;9.222;2022-09-09T05:06:37;18.60;1.00
702;DHT22;334;48.808;9.222;2022-09-09T05:07:39;18.60;1.00
702;DHT22;334;48.808;9.222;2022-09-09T05:08:42;18.60;1.00
702;DHT22;334;48.808;9.222;2022-09-09T05:09:45;18.60;1.00
702;DHT22;334;48.808;9.222;2022-09-09T05:10:49;18.60;1.00
702;DHT22;334;48.808;9.222;2022-09-09T05:11:53;18.60;1.00
702;DHT22;334;48.808;9.222;2022-09-09T05:12:55;18.60;1.00
702;DHT22;334;48.808;9.222;2022-09-09T05:13:58;18.60;1.00
702;DHT22;334;48.808;9.222;2022-09-09T05:15:00;18.60;1.00
702;DHT22;334;48.808;9.222;2022-09-09T05:16:02;18.70;1.00
702;DHT22;334;48.808;9.222;2022-09-09T05:17:04;18.70;1.00
702;DHT22;334;48.808;9.222;2022-09-09T05:18:07;18.70;1.00
702;DHT22;334;48.808;9.222;2022-09-09T05:19:08;18.70;1.00
702;DHT22;334;48.808;9.222;2022-09-09T05:20:11;18.70;1.00
702;DHT22;334;48.808;9.222;2022-09-09T05:21:19;18.70;1.00
702;DHT22;334;48.808;9.222;2022-09-09T05:22:22;18.70;1.00
702;DHT22;334;48.808;9.222;2022-09-09T05:23:24;18.80;1.00
702;DHT22;334;48.808;9.222;2022-09-09T05:24:26;18.70;1.00
702;DHT22;334;48.808;9.222;2022-09-09T05:25:30;18.80;1.00
702;DHT22;334;48.808;9.222;2022-09-09T05:26:33;18.80;1.00
702;DHT22;334;48.808;9.222;2022-09-09T05:27:34;18.80;1.00
702;DHT22;334;48.808;9.222;2022-09-09T05:28:37;18.80;1.00
702;DHT22;334;48.808;9.222;2022-09-09T05:29:39;18.80;1.00
702;DHT22;334;48.808;9.222;2022-09-09T05:30:43;18.80;1.00
702;DHT22;334;48.808;9.222;2022-09-09T05:31:45;18.80;1.00
702;DHT22;334;48.808;9.222;2022-09-09T05:32:48;18.90;1.00
702;DHT22;334;48.808;9.222;2022-09-09T05:33:51;18.90;1.00
702;DHT22;334;48.808;9.222;2022-09-09T05:34:53;18.90;1.00
702;DHT22;334;48.808;9.222;2022-09-09T05:35:58;19.00;1.00
702;DHT22;334;48.808;9.222;2022-09-09T05:37:00;18.90;1.00
702;DHT22;334;48.808;9.222;2022-09-09T05:38:02;18.90;1.00
702;DHT22;334;48.808;9.222;2022-09-09T05:39:04;18.90;1.00
702;DHT22;334;48.808;9.222;2022-09-09T05:40:06;18.90;1.00
702;DHT22;334;48.808;9.222;2022-09-09T05:41:10;18.90;1.00
702;DHT22;334;48.808;9.222;2022-09-09T05:42:13;19.00;1.00
702;DHT22;334;48.808;9.222;2022-09-09T05:43:14;19.00;1.00
702;DHT22;334;48.808;9.222;2022-09-09T05:44:16;19.00;1.00
702;DHT22;334;48.808;9.222;2022-09-09T05:45:19;19.00;1.00
702;DHT22;334;48.808;9.222;2022-09-09T05:46:24;19.00;1.00
702;DHT22;334;48.808;9.222;2022-09-09T05:47:26;19.00;1.00
702;DHT22;334;48.808;9.222;2022-09-09T05:48:31;18.80;1.00
702;DHT22;334;48.808;9.222;2022-09-09T05:49:33;19.00;1.00
702;DHT22;334;48.808;9.222;2022-09-09T05:50:35;19.10;1.00
702;DHT22;334;48.808;9.222;2022-09-09T05:51:37;19.10;1.00
702;DHT22;334;48.808;9.222;2022-09-09T05:52:38;19.10;1.00
702;DHT22;334;48.808;9.222;2022-09-09T05:53:42;19.10;1.00
702;DHT22;334;48.808;9.222;2022-09-09T05:54:45;19.20;1.00
702;DHT22;334;48.808;9.222;2022-09-09T05:55:47;19.40;1.00
702;DHT22;334;48.808;9.222;2022-09-09T05:56:50;19.20;1.00
702;DHT22;334;48.808;9.222;2022-09-09T05:57:52;19.20;1.00
702;DHT22;334;48.808;9.222;2022-09-09T05:58:55;19.20;1.00
702;DHT22;334;48.808;9.222;2022-09-09T05:59:58;19.30;1.00
702;DHT22;334;48.808;9.222;2022-09-09T06:01:14;19.30;1.00
702;DHT22;334;48.808;9.222;2022-09-09T06:02:18;19.30;1.00
702;DHT22;334;48.808;9.222;2022-09-09T06:03:21;19.30;1.00
702;DHT22;334;48.808;9.222;2022-09-09T06:04:25;19.30;1.00
702;DHT22;334;48.808;9.222;2022-09-09T06:05:27;19.30;1.00
702;DHT22;334;48.808;9.222;2022-09-09T06:06:32;19.30;1.00
702;DHT22;334;48.808;9.222;2022-09-09T06:07:38;19.40;1.00
702;DHT22;334;48.808;9.222;2022-09-09T06:08:45;19.40;1.00
702;DHT22;334;48.808;9.222;2022-09-09T06:09:47;19.40;1.00
702;DHT22;334;48.808;9.222;2022-09-09T06:10:49;19.40;1.00
702;DHT22;334;48.808;9.222;2022-09-09T06:11:55;19.40;1.00
702;DHT22;334;48.808;9.222;2022-09-09T06:12:58;19.40;1.00
702;DHT22;334;48.808;9.222;2022-09-09T06:14:00;19.40;1.00
702;DHT22;334;48.808;9.222;2022-09-09T06:15:02;19.40;1.00
702;DHT22;334;48.808;9.222;2022-09-09T06:16:04;19.30;1.00
702;DHT22;334;48.808;9.222;2022-09-09T06:17:08;19.30;1.00
702;DHT22;334;48.808;9.222;2022-09-09T06:18:10;19.30;1.00
702;DHT22;334;48.808;9.222;2022-09-09T06:19:13;19.30;1.00
702;DHT22;334;48.808;9.222;2022-09-09T06:20:16;19.30;1.00
702;DHT22;334;48.808;9.222;2022-09-09T06:21:39;19.50;1.00
702;DHT22;334;48.808;9.222;2022-09-09T06:22:42;19.40;1.00
702;DHT22;334;48.808;9.222;2022-09-09T06:23:44;19.40;1.00
702;DHT22;334;48.808;9.222;2022-09-09T06:24:46;19.40;1.00
702;DHT22;334;48.808;9.222;2022-09-09T06:25:50;19.40;1.00
702;DHT22;334;48.808;9.222;2022-09-09T06:26:56;19.50;1.00
702;DHT22;334;48.808;9.222;2022-09-09T06:27:59;19.50;1.00
702;DHT22;334;48.808;9.222;2022-09-09T06:29:02;19.50;1.00
702;DHT22;334;48.808;9.222;2022-09-09T06:30:06;19.50;1.00
702;DHT22;334;48.808;9.222;2022-09-09T06:31:12;19.50;1.00
702;DHT22;334;48.808;9.222;2022-09-09T06:32:15;19.50;1.00
702;DHT22;334;48.808;9.222;2022-09-09T06:33:17;19.60;1.00
702;DHT22;334;48.808;9.222;2022-09-09T06:34:19;19.60;1.00
702;DHT22;334;48.808;9.222;2022-09-09T06:35:21;19.60;1.00
702;DHT22;334;48.808;9.222;2022-09-09T06:36:28;19.60;1.00
702;DHT22;334;48.808;9.222;2022-09-09T06:37:31;19.60;1.00
702;DHT22;334;48.808;9.222;2022-09-09T06:38:34;19.70;1.00
702;DHT22;334;48.808;9.222;2022-09-09T06:39:38;19.70;1.00
702;DHT22;334;48.808;9.222;2022-09-09T06:40:40;19.70;1.00
702;DHT22;334;48.808;9.222;2022-09-09T06:41:42;19.70;1.00
702;DHT22;334;48.808;9.222;2022-09-09T06:42:44;19.80;1.00
702;DHT22;334;48.808;9.222;2022-09-09T06:43:47;19.80;1.00
702;DHT22;334;48.808;9.222;2022-09-09T06:44:48;19.80;1.00
702;DHT22;334;48.808;9.222;2022-09-09T06:45:58;19.90;1.00
702;DHT22;334;48.808;9.222;2022-09-09T06:47:00;19.90;1.00
702;DHT22;334;48.808;9.222;2022-09-09T06:48:02;19.90;1.00
702;DHT22;334;48.808;9.222;2022-09-09T06:49:04;20.00;1.00
702;DHT22;334;48.808;9.222;2022-09-09T06:50:08;20.00;1.00
702;DHT22;334;48.808;9.222;2022-09-09T06:51:16;20.00;1.00
702;DHT22;334;48.808;9.222;2022-09-09T06:52:19;20.00;1.00
702;DHT22;334;48.808;9.222;2022-09-09T06:53:23;20.00;1.00
702;DHT22;334;48.808;9.222;2022-09-09T06:54:25;20.00;1.00
702;DHT22;334;48.808;9.222;2022-09-09T06:55:32;20.00;1.00
702;DHT22;334;48.808;9.222;2022-09-09T06:56:35;20.10;1.00
702;DHT22;334;48.808;9.222;2022-09-09T06:57:37;20.10;1.00
702;DHT22;334;48.808;9.222;2022-09-09T06:58:41;20.10;1.00
702;DHT22;334;48.808;9.222;2022-09-09T06:59:47;20.10;1.00
702;DHT22;334;48.808;9.222;2022-09-09T07:00:49;20.10;1.00
702;DHT22;334;48.808;9.222;2022-09-09T07:01:51;20.10;1.00
702;DHT22;334;48.808;9.222;2022-09-09T07:02:56;20.20;1.00
702;DHT22;334;48.808;9.222;2022-09-09T07:03:59;20.20;1.00
702;DHT22;334;48.808;9.222;2022-09-09T07:05:01;20.20;1.00
702;DHT22;334;48.808;9.222;2022-09-09T07:06:06;20.20;1.00
702;DHT22;334;48.808;9.222;2022-09-09T07:07:08;20.20;1.00
702;DHT22;334;48.808;9.222;2022-09-09T07:08:11;20.20;1.00
702;DHT22;334;48.808;9.222;2022-09-09T07:09:15;20.30;1.00
702;DHT22;334;48.808;9.222;2022-09-09T07:10:17;20.30;1.00
702;DHT22;334;48.808;9.222;2022-09-09T07:11:22;20.30;1.00
702;DHT22;334;48.808;9.222;2022-09-09T07:12:23;20.30;1.00
702;DHT22;334;48.808;9.222;2022-09-09T07:13:26;20.30;1.00
702;DHT22;334;48.808;9.222;2022-09-09T07:14:29;20.40;1.00
702;DHT22;334;48.808;9.222;2022-09-09T07:15:33;20.40;1.00
702;DHT22;334;48.808;9.222;2022-09-09T07:16:35;20.40;1.00
702;DHT22;334;48.808;9.222;2022-09-09T07:17:39;20.50;1.00
702;DHT22;334;48.808;9.222;2022-09-09T07:18:41;20.50;1.00
702;DHT22;334;48.808;9.222;2022-09-09T07:19:45;20.70;1.00
702;DHT22;334;48.808;9.222;2022-09-09T07:20:54;20.50;1.00
702;DHT22;334;48.808;9.222;2022-09-09T07:21:59;20.50;1.00
702;DHT22;334;48.808;9.222;2022-09-09T07:23:01;20.50;1.00
702;DHT22;334;48.808;9.222;2022-09-09T07:24:03;20.50;1.00
702;DHT22;334;48.808;9.222;2022-09-09T07:25:08;20.50;1.00
702;DHT22;334;48.808;9.222;2022-09-09T07:26:16;20.50;1.00
702;DHT22;334;48.808;9.222;2022-09-09T07:27:17;20.50;1.00
702;DHT22;334;48.808;9.222;2022-09-09T07:28:20;20.60;1.00
702;DHT22;334;48.808;9.222;2022-09-09T07:29:25;20.60;1.00
702;DHT22;334;48.808;9.222;2022-09-09T07:30:27;20.60;1.00
702;DHT22;334;48.808;9.222;2022-09-09T07:31:35;20.70;1.00
702;DHT22;334;48.808;9.222;2022-09-09T07:32:37;20.70;1.00
702;DHT22;334;48.808;9.222;2022-09-09T07:33:39;20.70;1.00
702;DHT22;334;48.808;9.222;2022-09-09T07:34:43;20.70;1.00
702;DHT22;334;48.808;9.222;2022-09-09T07:35:45;20.70;1.00
702;DHT22;334;48.808;9.222;2022-09-09T07:36:49;20.70;1.00
702;DHT22;334;48.808;9.222;2022-09-09T07:37:51;20.70;1.00
702;DHT22;334;48.808;9.222;2022-09-09T07:38:56;20.70;1.00
702;DHT22;334;48.808;9.222;2022-09-09T07:39:58;20.70;1.00
702;DHT22;334;48.808;9.222;2022-09-09T07:41:08;20.70;1.00
702;DHT22;334;48.808;9.222;2022-09-09T07:42:15;20.80;1.00
702;DHT22;334;48.808;9.222;2022-09-09T07:43:26;20.80;1.00
702;DHT22;334;48.808;9.222;2022-09-09T07:44:27;20.80;1.00
702;DHT22;334;48.808;9.222;2022-09-09T07:45:29;20.90;1.00
702;DHT22;334;48.808;9.222;2022-09-09T07:46:32;20.90;1.00
702;DHT22;334;48.808;9.222;2022-09-09T07:47:35;20.90;1.00
702;DHT22;334;48.808;9.222;2022-09-09T07:48:38;21.00;1.00
702;DHT22;334;48.808;9.222;2022-09-09T07:49:42;21.00;1.00
702;DHT22;334;48.808;9.222;2022-09-09T07:50:44;21.00;1.00
702;DHT22;334;48.808;9.222;2022-09-09T07:51:47;21.00;1.00
702;DHT22;334;48.808;9.222;2022-09-09T07:52:51;21.00;1.00
702;DHT22;334;48.808;9.222;2022-09-09T07:54:00;21.10;1.00
702;DHT22;334;48.808;9.222;2022-09-09T07:55:03;21.00;1.00
702;DHT22;334;48.808;9.222;2022-09-09T07:56:08;21.00;1.00
702;DHT22;334;48.808;9.222;2022-09-09T07:57:10;21.10;1.00